createdAt,value
2022-08-26T00:02:19.300Z,1.90
2022-08-26T00:05:08.300Z,2.10
2022-08-26T00:07:41.637Z,2.42
2022-08-26T00:10:44.689Z,2.50
2022-08-26T00:13:32.058Z,2.30
2022-08-26T00:16:31.228Z,2.47
2022-08-26T00:19:04.540Z,2.67
2022-08-26T00:21:37.584Z,2.40
2022-08-26T00:24:16.464Z,2.45
2022-08-26T00:26:50.433Z,2.65
2022-08-26T00:29:25.095Z,2.30
2022-08-26T00:32:01.477Z,2.60
2022-08-26T00:34:37.005Z,2.78
2022-08-26T00:37:13.391Z,2.80
2022-08-26T00:40:17.406Z,2.78
2022-08-26T00:42:50.262Z,2.75
2022-08-26T00:45:23.395Z,3.13
2022-08-26T00:48:01.002Z,3.40
2022-08-26T00:50:43.051Z,3.08
2022-08-26T00:53:29.126Z,3.40
2022-08-26T00:56:16.115Z,3.85
2022-08-26T00:58:52.715Z,3.97
2022-08-26T01:01:30.733Z,3.80
2022-08-26T01:04:04.515Z,4.40
2022-08-26T01:06:38.079Z,4.05
2022-08-26T01:09:23.577Z,4.03
2022-08-26T01:12:00.459Z,4.05
2022-08-26T01:14:36.749Z,3.97
2022-08-26T01:20:35.904Z,4.10
2022-08-26T01:23:11.004Z,4.68
2022-08-26T01:26:30.792Z,4.55
2022-08-26T01:29:07.375Z,4.43
2022-08-26T01:31:43.879Z,5.18
2022-08-26T01:34:42.453Z,5.40
2022-08-26T01:37:19.396Z,5.28
2022-08-26T01:39:54.703Z,5.13
2022-08-26T01:42:31.657Z,6.15
2022-08-26T01:45:11.065Z,5.63
2022-08-26T01:47:57.371Z,5.65
2022-08-26T01:50:39.671Z,6.60
2022-08-26T01:53:18.789Z,6.07
2022-08-26T01:56:02.280Z,6.38
2022-08-26T01:58:46.620Z,6.38
2022-08-26T02:01:21.295Z,5.65
2022-08-26T02:04:25.967Z,6.32
2022-08-26T02:07:02.201Z,6.90
2022-08-26T02:09:41.252Z,6.13
2022-08-26T02:12:21.655Z,6.60
2022-08-26T02:15:00.676Z,8.82
2022-08-26T02:17:38.726Z,9.93
2022-08-26T02:20:15.430Z,8.43
2022-08-26T02:22:48.704Z,10.77
2022-08-26T02:25:43.437Z,7.97
2022-08-26T02:28:17.680Z,11.02
2022-08-26T02:30:58.448Z,9.85
2022-08-26T02:36:33.123Z,9.48
2022-08-26T02:39:06.486Z,11.48
2022-08-26T02:41:40.339Z,12.30
2022-08-26T02:47:33.329Z,8.88
2022-08-26T02:50:07.539Z,12.32
2022-08-26T02:55:32.032Z,13.30
2022-08-26T02:58:17.173Z,14.95
2022-08-26T03:00:57.647Z,12.85
2022-08-26T03:03:31.900Z,12.98
2022-08-26T03:06:05.632Z,10.63
2022-08-26T03:08:39.151Z,17.55
2022-08-26T03:14:35.643Z,17.48
2022-08-26T03:17:08.605Z,16.55
2022-08-26T03:19:43.016Z,17.08
2022-08-26T03:22:43.114Z,14.02
2022-08-26T03:25:20.891Z,16.30
2022-08-26T03:27:57.687Z,17.20
2022-08-26T03:30:56.497Z,17.02
2022-08-26T03:33:29.685Z,16.08
2022-08-26T03:36:03.951Z,16.85
2022-08-26T03:38:37.192Z,18.95
2022-08-26T03:41:12.178Z,16.13
2022-08-26T03:43:47.683Z,16.20
2022-08-26T03:46:26.763Z,19.08
2022-08-26T03:49:01.287Z,18.15
2022-08-26T03:51:35.806Z,18.85
2022-08-26T03:54:40.843Z,13.68
2022-08-26T03:57:19.641Z,13.48
2022-08-26T03:59:52.587Z,16.13
2022-08-26T04:03:06.512Z,17.33
2022-08-26T04:06:09.133Z,19.23
2022-08-26T04:08:42.561Z,18.42
2022-08-26T04:15:21.771Z,22.20
2022-08-26T04:17:56.012Z,20.05
2022-08-26T04:20:30.384Z,20.35
2022-08-26T04:23:03.602Z,20.02
2022-08-26T04:25:38.639Z,15.88
2022-08-26T04:28:14.799Z,18.73
2022-08-26T04:30:47.809Z,20.73
2022-08-26T04:33:32.235Z,16.85
2022-08-26T04:36:06.098Z,19.20
2022-08-26T04:38:39.409Z,18.52
2022-08-26T04:41:15.707Z,18.25
2022-08-26T04:43:50.617Z,15.00
2022-08-26T04:46:25.458Z,15.38
2022-08-26T04:48:59.120Z,17.55
2022-08-26T04:51:33.153Z,13.88
2022-08-26T04:54:07.343Z,17.40
2022-08-26T04:56:43.701Z,18.73
2022-08-26T04:59:18.411Z,15.93
2022-08-26T05:01:56.149Z,16.83
2022-08-26T05:04:29.694Z,15.65
2022-08-26T05:07:03.102Z,16.20
2022-08-26T05:09:36.946Z,15.25
2022-08-26T05:12:10.580Z,17.52
2022-08-26T05:14:43.508Z,13.55
2022-08-26T05:17:16.262Z,15.18
2022-08-26T05:19:50.991Z,14.50
2022-08-26T05:22:23.922Z,17.48
2022-08-26T05:24:58.306Z,14.55
2022-08-26T05:27:31.045Z,18.77
2022-08-26T05:30:06.649Z,16.67
2022-08-26T05:32:40.535Z,14.90
2022-08-26T05:35:13.495Z,15.55
2022-08-26T05:37:54.436Z,13.88
2022-08-26T05:40:28.770Z,13.23
2022-08-26T05:43:02.183Z,15.65
2022-08-26T05:45:35.055Z,15.90
2022-08-26T05:48:08.182Z,13.38
2022-08-26T05:50:46.882Z,15.73
2022-08-26T05:53:26.032Z,17.20
2022-08-26T05:56:02.570Z,16.13
2022-08-26T05:58:37.528Z,14.60
2022-08-26T06:01:17.274Z,11.75
2022-08-26T06:03:52.761Z,11.52
2022-08-26T06:06:29.363Z,14.10
2022-08-26T06:09:05.484Z,13.55
2022-08-26T06:11:39.025Z,12.43
2022-08-26T06:14:12.209Z,12.82
2022-08-26T06:16:46.387Z,14.80
2022-08-26T06:19:19.276Z,12.50
2022-08-26T06:21:54.926Z,11.95
2022-08-26T06:24:49.015Z,10.95
2022-08-26T06:27:24.470Z,10.48
2022-08-26T06:30:09.434Z,11.48
2022-08-26T06:32:42.354Z,12.20
2022-08-26T06:35:15.357Z,10.35
2022-08-26T06:37:48.275Z,9.75
2022-08-26T06:40:22.568Z,12.60
2022-08-26T06:42:55.639Z,10.82
2022-08-26T06:45:28.886Z,10.02
2022-08-26T06:48:01.767Z,10.48
2022-08-26T06:50:35.160Z,10.80
2022-08-26T06:53:09.633Z,10.02
2022-08-26T06:55:44.674Z,8.98
2022-08-26T06:58:17.545Z,8.93
2022-08-26T07:00:52.551Z,7.88
2022-08-26T07:03:25.386Z,9.02
2022-08-26T07:06:03.350Z,9.52
2022-08-26T07:08:36.339Z,8.27
2022-08-26T07:11:11.151Z,8.77
2022-08-26T07:13:46.560Z,7.72
2022-08-26T07:16:21.852Z,8.85
2022-08-26T07:18:57.310Z,8.63
2022-08-26T07:21:30.684Z,10.65
2022-08-26T07:24:04.254Z,10.53
2022-08-26T07:26:37.287Z,9.52
2022-08-26T07:29:12.355Z,10.47
2022-08-26T07:31:45.589Z,7.95
2022-08-26T07:34:18.657Z,9.40
2022-08-26T07:36:51.887Z,8.60
2022-08-26T07:39:25.567Z,8.10
2022-08-26T07:42:07.469Z,8.18
2022-08-26T07:44:41.705Z,10.38
2022-08-26T07:47:25.822Z,9.20
2022-08-26T07:50:00.129Z,10.75
2022-08-26T07:52:32.965Z,8.27
2022-08-26T07:55:08.987Z,8.70
2022-08-26T07:57:42.086Z,8.45
2022-08-26T08:00:16.575Z,8.88
2022-08-26T08:02:51.064Z,8.15
2022-08-26T08:05:33.432Z,9.00
2022-08-26T08:08:26.910Z,8.43
2022-08-26T08:11:01.969Z,7.35
2022-08-26T08:13:34.797Z,7.97
2022-08-26T08:16:08.574Z,8.02
2022-08-26T08:18:46.119Z,8.02
2022-08-26T08:21:21.344Z,7.63
2022-08-26T08:23:57.505Z,6.63
2022-08-26T08:26:30.309Z,7.25
2022-08-26T08:29:03.849Z,7.25
2022-08-26T08:31:57.006Z,7.63
2022-08-26T08:34:32.157Z,6.30
2022-08-26T08:37:08.759Z,7.90
2022-08-26T08:39:43.715Z,6.70
2022-08-26T08:42:41.491Z,7.40
2022-08-26T08:45:59.752Z,7.32
2022-08-26T08:48:37.422Z,6.25
2022-08-26T08:51:29.907Z,7.55
2022-08-26T08:54:02.865Z,6.47
2022-08-26T08:56:44.722Z,6.35
2022-08-26T08:59:24.166Z,6.80
2022-08-26T09:02:20.741Z,6.10
2022-08-26T09:05:15.231Z,6.45
2022-08-26T09:08:36.866Z,5.57
2022-08-26T09:11:10.990Z,6.03
2022-08-26T09:13:51.245Z,6.03
2022-08-26T09:16:43.413Z,5.80
2022-08-26T09:19:37.018Z,5.82
2022-08-26T09:22:09.998Z,5.60
2022-08-26T09:24:48.566Z,5.80
2022-08-26T09:27:44.601Z,5.40
2022-08-26T09:30:27.079Z,5.30
2022-08-26T09:33:11.184Z,5.82
2022-08-26T09:38:53.533Z,5.82
2022-08-26T09:41:28.303Z,4.80
2022-08-26T09:44:20.622Z,4.80
2022-08-26T09:46:57.485Z,4.82
2022-08-26T09:49:35.778Z,5.07
2022-08-26T09:52:17.695Z,5.13
2022-08-26T09:55:24.690Z,5.03
2022-08-26T09:58:02.265Z,4.78
2022-08-26T10:00:40.407Z,4.60
2022-08-26T10:03:25.083Z,4.68
2022-08-26T10:06:04.295Z,4.85
2022-08-26T10:08:40.847Z,5.15
2022-08-26T10:11:34.914Z,5.18
2022-08-26T10:14:32.481Z,3.95
2022-08-26T10:17:30.740Z,4.30
2022-08-26T10:20:29.861Z,4.32
2022-08-26T10:23:17.910Z,4.25
2022-08-26T10:26:01.637Z,4.45
2022-08-26T10:28:54.830Z,5.10
2022-08-26T10:31:38.244Z,4.10
2022-08-26T10:34:14.184Z,4.50
2022-08-26T10:37:18.630Z,3.95
2022-08-26T10:40:01.853Z,4.15
2022-08-26T10:43:07.042Z,4.32
2022-08-26T10:45:54.561Z,4.28
2022-08-26T10:49:17.780Z,4.35
2022-08-26T10:52:21.390Z,4.28
2022-08-26T10:55:09.012Z,4.50
2022-08-26T10:58:04.943Z,3.75
2022-08-26T11:01:10.153Z,4.30
2022-08-26T11:04:04.855Z,4.60
2022-08-26T11:06:37.768Z,3.80
2022-08-26T11:09:10.758Z,4.00
2022-08-26T11:11:47.097Z,3.75
2022-08-26T11:14:28.354Z,3.92
2022-08-26T11:17:02.945Z,4.55
2022-08-26T11:19:57.075Z,3.13
2022-08-26T11:22:36.192Z,3.90
2022-08-26T11:25:14.858Z,3.92
2022-08-26T11:27:54.253Z,3.55
2022-08-26T11:30:43.059Z,3.70
2022-08-26T11:33:47.696Z,3.20
2022-08-26T11:36:42.162Z,3.47
2022-08-26T11:39:20.889Z,3.80
2022-08-26T11:41:59.871Z,3.67
2022-08-26T11:44:49.077Z,3.88
2022-08-26T11:47:29.531Z,3.50
2022-08-26T11:50:19.710Z,3.45
2022-08-26T11:52:54.750Z,3.55
2022-08-26T11:55:29.809Z,3.30
2022-08-26T11:58:05.075Z,3.33
2022-08-26T12:01:11.466Z,3.00
2022-08-26T12:03:44.433Z,3.50
2022-08-26T12:06:29.342Z,3.30
2022-08-26T12:09:11.570Z,3.42
2022-08-26T12:11:44.318Z,3.10
2022-08-26T12:14:25.462Z,3.03
2022-08-26T12:17:14.041Z,3.25
2022-08-26T12:19:47.094Z,2.90
2022-08-26T12:22:34.478Z,3.00
2022-08-26T12:25:10.175Z,3.20
2022-08-26T12:27:45.275Z,2.85
2022-08-26T12:30:23.686Z,3.42
2022-08-26T12:33:22.972Z,3.03
2022-08-26T12:35:57.470Z,2.80
2022-08-26T12:38:30.938Z,2.70
2022-08-26T12:41:39.314Z,3.17
2022-08-26T12:44:32.202Z,2.72
2022-08-26T12:47:42.899Z,3.03
2022-08-26T12:50:23.584Z,2.30
2022-08-26T12:53:17.665Z,2.78
2022-08-26T12:56:00.097Z,2.55
2022-08-26T12:58:35.995Z,2.67
2022-08-26T13:01:09.541Z,2.60
2022-08-26T13:03:45.303Z,2.85
2022-08-26T13:06:26.156Z,2.90
2022-08-26T13:09:25.330Z,2.70
2022-08-26T13:12:49.179Z,2.40
2022-08-26T13:15:21.991Z,2.58
2022-08-26T13:17:54.778Z,2.55
2022-08-26T13:20:32.155Z,2.72
2022-08-26T13:23:11.715Z,2.60
2022-08-26T13:25:44.947Z,2.58
2022-08-26T13:28:18.225Z,2.70
2022-08-26T13:30:51.067Z,2.25
2022-08-26T13:33:23.986Z,2.60
2022-08-26T13:35:57.009Z,2.83
2022-08-26T13:38:33.301Z,2.92
2022-08-26T13:41:06.914Z,2.83
2022-08-26T13:43:39.807Z,2.90
2022-08-26T13:46:12.942Z,2.40
2022-08-26T13:48:46.110Z,2.67
2022-08-26T13:51:20.420Z,2.75
2022-08-26T13:53:54.000Z,2.88
2022-08-26T13:56:29.692Z,3.10
2022-08-26T13:59:03.024Z,2.97
2022-08-26T14:01:37.116Z,3.30
2022-08-26T14:04:09.934Z,2.90
2022-08-26T14:06:42.984Z,3.20
2022-08-26T14:09:15.753Z,2.63
2022-08-26T14:11:54.103Z,3.28
2022-08-26T14:14:27.757Z,3.10
2022-08-26T14:17:01.576Z,3.33
2022-08-26T14:19:34.566Z,3.78
2022-08-26T14:22:08.181Z,2.72
2022-08-26T14:24:40.959Z,3.30
2022-08-26T14:27:39.959Z,2.80
2022-08-26T14:30:14.074Z,2.90
2022-08-26T14:32:55.996Z,2.42
2022-08-26T14:35:30.691Z,2.67
2022-08-26T14:38:03.665Z,2.90
2022-08-26T14:40:37.547Z,2.58
2022-08-26T14:43:15.078Z,2.40
2022-08-26T14:45:47.949Z,2.30
2022-08-26T14:48:20.912Z,2.58
2022-08-26T14:50:53.653Z,2.30
2022-08-26T14:53:46.617Z,2.17
2022-08-26T14:56:19.475Z,2.42
2022-08-26T14:58:52.541Z,2.25
2022-08-26T15:01:34.227Z,2.47
2022-08-26T15:04:07.247Z,2.00
2022-08-26T15:07:05.496Z,2.10
2022-08-26T15:09:38.479Z,2.50
2022-08-26T15:12:11.328Z,2.50
2022-08-26T15:14:44.192Z,2.40
2022-08-26T15:17:17.455Z,2.28
2022-08-26T15:19:50.526Z,2.60
2022-08-26T15:22:25.999Z,2.47
2022-08-26T15:25:04.330Z,2.38
2022-08-26T15:27:37.717Z,2.17
2022-08-26T15:30:18.286Z,2.20
2022-08-26T15:32:51.097Z,2.42
2022-08-26T15:35:24.197Z,2.20
2022-08-26T15:37:56.968Z,2.20
2022-08-26T15:40:33.045Z,2.60
2022-08-26T15:43:25.459Z,2.35
2022-08-26T15:45:59.725Z,2.17
2022-08-26T15:48:32.558Z,2.03
2022-08-26T15:51:07.067Z,2.30
2022-08-26T15:53:39.819Z,2.60
2022-08-26T15:56:13.151Z,2.38
2022-08-26T15:58:46.677Z,2.45
2022-08-26T16:01:27.177Z,2.10
2022-08-26T16:04:00.758Z,2.42
2022-08-26T16:06:37.126Z,2.42
2022-08-26T16:09:10.202Z,2.10
2022-08-26T16:11:43.210Z,2.47
2022-08-26T16:14:16.463Z,3.03
2022-08-26T16:16:49.898Z,2.40
2022-08-26T16:19:22.933Z,2.33
2022-08-26T16:21:55.826Z,2.20
2022-08-26T16:24:30.672Z,2.67
2022-08-26T16:27:03.710Z,1.92
2022-08-26T16:29:38.051Z,2.33
2022-08-26T16:32:10.988Z,2.47
2022-08-26T16:34:56.541Z,2.20
2022-08-26T16:37:29.922Z,2.17
2022-08-26T16:40:03.790Z,2.05
2022-08-26T16:42:37.820Z,2.40
2022-08-26T16:45:10.862Z,1.80
2022-08-26T16:47:44.042Z,2.05
2022-08-26T16:50:18.542Z,1.98
2022-08-26T16:52:55.681Z,2.28
2022-08-26T16:55:28.805Z,2.00
2022-08-26T16:58:02.256Z,1.83
2022-08-26T17:00:47.344Z,1.90
2022-08-26T17:03:20.182Z,1.85
2022-08-26T17:05:53.178Z,2.03
2022-08-26T17:08:28.731Z,2.20
2022-08-26T17:11:02.128Z,2.40
2022-08-26T17:13:42.480Z,2.08
2022-08-26T17:16:16.060Z,2.10
2022-08-26T17:18:49.097Z,1.95
2022-08-26T17:21:21.887Z,2.10
2022-08-26T17:23:56.255Z,2.33
2022-08-26T17:26:29.285Z,2.53
2022-08-26T17:29:02.272Z,4.20
2022-08-26T17:31:35.016Z,3.05
2022-08-26T17:34:08.221Z,2.60
2022-08-26T17:36:41.127Z,5.15
2022-08-26T17:39:14.338Z,3.85
2022-08-26T17:41:47.165Z,2.97
2022-08-26T17:44:20.111Z,3.00
2022-08-26T17:46:52.972Z,2.85
2022-08-26T17:49:26.073Z,3.00
2022-08-26T17:51:59.967Z,3.38
2022-08-26T17:54:33.091Z,3.10
2022-08-26T17:57:31.197Z,3.13
2022-08-26T18:00:07.173Z,3.65
2022-08-26T18:02:40.763Z,3.80
2022-08-26T18:05:17.492Z,3.75
2022-08-26T18:07:51.362Z,3.40
2022-08-26T18:10:26.156Z,3.13
2022-08-26T18:12:58.890Z,3.60
2022-08-26T18:15:31.935Z,3.22
2022-08-26T18:18:05.344Z,3.80
2022-08-26T18:20:40.729Z,3.42
2022-08-26T18:23:13.643Z,3.90
2022-08-26T18:25:46.576Z,3.67
2022-08-26T18:28:19.494Z,3.47
2022-08-26T18:30:52.497Z,3.58
2022-08-26T18:33:25.422Z,3.53
2022-08-26T18:36:07.619Z,4.80
2022-08-26T18:38:40.510Z,5.43
2022-08-26T18:41:15.841Z,3.85
2022-08-26T18:43:50.350Z,3.65
2022-08-26T18:46:28.667Z,4.35
2022-08-26T18:49:03.615Z,3.50
2022-08-26T18:51:37.872Z,3.35
2022-08-26T18:54:11.643Z,3.42
2022-08-26T18:56:44.530Z,3.55
2022-08-26T18:59:17.874Z,3.90
2022-08-26T19:01:51.090Z,3.88
2022-08-26T19:04:23.958Z,3.17
2022-08-26T19:06:56.898Z,3.65
2022-08-26T19:09:31.464Z,3.88
2022-08-26T19:12:05.275Z,3.10
2022-08-26T19:14:38.099Z,3.58
2022-08-26T19:17:11.830Z,3.70
2022-08-26T19:19:44.744Z,3.22
2022-08-26T19:22:19.873Z,4.25
2022-08-26T19:24:52.688Z,3.20
2022-08-26T19:27:25.822Z,3.70
2022-08-26T19:29:59.134Z,3.20
2022-08-26T19:32:33.123Z,3.00
2022-08-26T19:35:08.314Z,2.95
2022-08-26T19:37:41.531Z,3.58
2022-08-26T19:40:14.488Z,3.17
2022-08-26T19:42:47.505Z,3.33
2022-08-26T19:45:25.341Z,3.15
2022-08-26T19:47:59.037Z,3.08
2022-08-26T19:50:34.294Z,3.33
2022-08-26T19:53:07.287Z,3.10
2022-08-26T19:55:40.171Z,2.70
2022-08-26T19:58:13.135Z,3.30
2022-08-26T20:00:45.994Z,2.90
2022-08-26T20:03:18.818Z,3.10
2022-08-26T20:05:51.803Z,3.30
2022-08-26T20:08:24.889Z,3.10
2022-08-26T20:11:05.768Z,2.75
2022-08-26T20:13:40.114Z,3.45
2022-08-26T20:16:13.755Z,3.00
2022-08-26T20:19:05.500Z,2.80
2022-08-26T20:21:40.674Z,3.00
2022-08-26T20:24:18.072Z,3.15
2022-08-26T20:26:50.874Z,2.65
2022-08-26T20:29:23.755Z,3.00
2022-08-26T20:31:56.913Z,2.67
2022-08-26T20:34:30.161Z,3.05
2022-08-26T20:37:05.961Z,2.78
2022-08-26T20:39:38.957Z,2.90
2022-08-26T20:42:20.508Z,2.53
2022-08-26T20:44:54.454Z,3.22
2022-08-26T20:47:28.066Z,2.80
2022-08-26T20:50:02.790Z,3.00
2022-08-26T20:52:35.595Z,2.38
2022-08-26T20:55:08.988Z,2.53
2022-08-26T20:57:43.118Z,2.60
2022-08-26T21:00:18.149Z,3.03
2022-08-26T21:02:52.903Z,2.53
2022-08-26T21:05:26.817Z,2.80
2022-08-26T21:07:59.755Z,2.50
2022-08-26T21:10:32.992Z,2.95
2022-08-26T21:13:06.266Z,2.90
2022-08-26T21:15:39.365Z,2.85
2022-08-26T21:18:12.236Z,3.33
2022-08-26T21:20:45.238Z,3.35
2022-08-26T21:23:18.587Z,2.70
2022-08-26T21:25:51.531Z,3.03
2022-08-26T21:28:24.298Z,2.50
2022-08-26T21:30:57.633Z,2.80
2022-08-26T21:33:30.491Z,2.70
2022-08-26T21:36:04.677Z,2.60
2022-08-26T21:38:39.065Z,2.25
2022-08-26T21:41:14.084Z,2.40
2022-08-26T21:43:48.196Z,1.98
2022-08-26T21:46:23.248Z,1.80
2022-08-26T21:49:00.445Z,2.17
2022-08-26T21:51:36.242Z,2.05
2022-08-26T21:54:11.465Z,2.17
2022-08-26T21:56:47.045Z,1.77
2022-08-26T21:59:19.906Z,1.92
2022-08-26T22:01:52.982Z,2.10
2022-08-26T22:04:26.230Z,1.80
2022-08-26T22:06:59.183Z,2.00
2022-08-26T22:09:32.261Z,1.77
2022-08-26T22:12:09.495Z,1.52
2022-08-26T22:14:42.860Z,2.00
2022-08-26T22:17:15.964Z,1.58
2022-08-26T22:19:48.777Z,1.80
2022-08-26T22:22:23.090Z,1.60
2022-08-26T22:24:55.856Z,1.83
2022-08-26T22:27:28.821Z,1.80
2022-08-26T22:30:01.980Z,1.58
2022-08-26T22:32:35.095Z,1.40
2022-08-26T22:35:28.206Z,1.63
2022-08-26T22:38:01.070Z,1.60
2022-08-26T22:40:35.459Z,1.30
2022-08-26T22:43:08.595Z,2.00
2022-08-26T22:45:43.829Z,1.90
2022-08-26T22:48:19.200Z,1.90
2022-08-26T22:50:59.596Z,1.63
2022-08-26T22:53:35.863Z,1.45
2022-08-26T22:56:12.073Z,1.63
2022-08-26T22:58:45.612Z,2.00
2022-08-26T23:01:18.629Z,2.17
2022-08-26T23:03:51.599Z,1.65
2022-08-26T23:06:24.435Z,1.80
2022-08-26T23:08:57.324Z,1.27
2022-08-26T23:11:30.098Z,1.50
2022-08-26T23:14:06.676Z,1.67
2022-08-26T23:16:43.947Z,1.30
2022-08-26T23:19:19.726Z,1.35
2022-08-26T23:21:52.546Z,1.40
2022-08-26T23:24:25.491Z,1.73
2022-08-26T23:26:58.352Z,1.73
2022-08-26T23:29:31.381Z,1.40
2022-08-26T23:32:04.529Z,1.30
2022-08-26T23:34:55.851Z,1.40
2022-08-26T23:37:33.431Z,1.75
2022-08-26T23:40:13.173Z,1.50
2022-08-26T23:42:46.011Z,1.30
2022-08-26T23:45:20.019Z,1.70
2022-08-26T23:47:53.919Z,1.80
2022-08-26T23:50:49.245Z,1.45
2022-08-26T23:53:22.503Z,1.20
2022-08-26T23:55:55.785Z,1.50
2022-08-26T23:58:28.567Z,1.52
